Cardin, Oklahoma
Current Conditions -  °F | °C
As of 1:55 PM on Friday 21 Nov 2014 (Local Time) from KJLN Reporting Station
Broken Clouds Broken Clouds  
Wind Chill: 59°   Ceiling: 2200
Heat Index: 59°   Visibility: 10mi
Dew Point: 44°   Wind: 14mph
Humidity: 58%   Direction: 150°SSE
Pressure: 30.1"   Gusts: NA
Location:  36.97°N, 94.85°W
Report Text: KJLN 211955Z 15012KT 10SM BKN022 15/07 A3010 RMK AO2 T01500067
Loading
Personal Weather Stations






























Interactive Weather Map New forecast layout! Learn more

10-Day Weather Forecast

Advertisements
Track Severe Weather on mobile